Time;durP1;ratioP1;P1;durP2;ratioP2;P2;SDS_P1;SDS_P2;PMS_P1;PMS_P2;Temp;Humidity;BMP_temperature;BMP_pressure;BME280_temperature;BME280_humidity;BME280_pressure;Samples;Min_cycle;Max_cycle;Signal;HPM_P1;HPM_P2
2021/05/21 00:01:42;;;;;;;28.30;6.43;;;12.30;99.90;;;;;;4897505;29;20496;-87
2021/05/21 00:04:10;;;;;;;27.30;6.80;;;11.60;99.90;;;;;;4909365;29;20051;-90
2021/05/21 00:06:38;;;;;;;25.73;9.20;;;11.60;99.90;;;;;;4893623;29;20059;-89
2021/05/21 00:09:12;;;;;;;16.67;5.38;;;11.60;99.90;;;;;;4893516;29;20059;-88
2021/05/21 00:11:39;;;;;;;22.40;6.43;;;11.60;99.90;;;;;;4884588;29;20062;-89
2021/05/21 00:14:07;;;;;;;23.40;6.15;;;11.60;99.90;;;;;;4908187;29;20064;-89
2021/05/21 00:16:35;;;;;;;28.00;6.18;;;11.60;99.90;;;;;;4874024;29;20067;-88
2021/05/21 00:19:03;;;;;;;34.47;6.95;;;11.80;99.90;;;;;;4907308;29;20056;-89
2021/05/21 00:21:31;;;;;;;21.88;6.43;;;11.50;99.90;;;;;;4887794;29;20082;-89
2021/05/21 00:24:00;;;;;;;27.48;6.30;;;11.50;99.90;;;;;;4908266;29;20059;-91
2021/05/21 00:26:30;;;;;;;27.60;6.10;;;11.40;99.90;;;;;;4922551;29;20063;-89
2021/05/21 00:28:58;;;;;;;34.10;6.80;;;11.50;99.90;;;;;;4923195;29;20067;-89
2021/05/21 00:31:26;;;;;;;23.80;8.60;;;10.90;99.90;;;;;;4908158;29;20067;-88
2021/05/21 00:33:54;;;;;;;41.83;8.60;;;11.50;99.90;;;;;;4891980;29;20052;-89
2021/05/21 00:36:23;;;;;;;30.88;7.03;;;11.70;99.90;;;;;;4921856;29;20296;-88
2021/05/21 00:38:51;;;;;;;23.50;6.15;;;11.50;99.90;;;;;;4893341;29;20052;-90
2021/05/21 00:41:23;;;;;;;35.85;10.02;;;11.50;99.90;;;;;;4903883;29;20048;-88
2021/05/21 00:43:56;;;;;;;29.80;9.73;;;11.50;99.90;;;;;;4907924;29;20048;-88
2021/05/21 00:46:27;;;;;;;52.25;8.98;;;11.50;99.90;;;;;;4924198;29;20071;-89
2021/05/21 00:48:55;;;;;;;29.73;7.57;;;11.50;99.90;;;;;;4901939;29;20048;-88
2021/05/21 00:51:24;;;;;;;34.13;10.30;;;12.70;99.90;;;;;;4924354;29;20507;-90
2021/05/21 00:53:53;;;;;;;42.38;10.60;;;11.50;99.90;;;;;;4906999;29;20055;-88
2021/05/21 00:56:21;;;;;;;28.42;6.65;;;11.60;99.90;;;;;;4877407;29;20540;-88
2021/05/21 00:58:50;;;;;;;38.33;8.32;;;11.60;99.90;;;;;;4891782;29;20048;-88
2021/05/21 01:01:18;;;;;;;28.92;8.88;;;11.60;99.90;;;;;;4908447;29;20417;-89
2021/05/21 01:03:46;;;;;;;37.00;7.82;;;11.60;99.90;;;;;;4904885;29;20051;-88
2021/05/21 01:06:15;;;;;;;29.00;7.55;;;11.70;99.90;;;;;;4891500;29;20075;-89
2021/05/21 01:08:43;;;;;;;33.38;7.78;;;11.60;99.90;;;;;;4873739;29;20052;-89
2021/05/21 01:11:11;;;;;;;31.88;10.05;;;11.60;99.90;;;;;;4901451;29;20055;-89
2021/05/21 01:13:40;;;;;;;31.15;8.30;;;11.80;99.90;;;;;;4906647;29;20044;-89
2021/05/21 01:16:08;;;;;;;16.15;4.95;;;11.70;99.90;;;;;;4890928;29;20056;-89
2021/05/21 01:18:36;;;;;;;25.30;7.53;;;11.70;99.90;;;;;;4891147;29;20055;-89
2021/05/21 01:21:05;;;;;;;22.00;7.60;;;11.60;99.90;;;;;;4906700;29;20416;-88
2021/05/21 01:23:32;;;;;;;33.78;9.23;;;11.60;99.90;;;;;;4891247;29;20059;-89
2021/05/21 01:26:01;;;;;;;48.47;8.35;;;11.50;99.90;;;;;;4922702;29;20424;-89
2021/05/21 01:28:29;;;;;;;32.72;7.80;;;11.40;99.90;;;;;;4907083;29;20048;-88
2021/05/21 01:30:57;;;;;;;30.25;8.82;;;11.40;99.90;;;;;;4875115;29;20055;-88
2021/05/21 01:33:25;;;;;;;40.13;8.98;;;11.70;99.90;;;;;;4889836;29;20056;-90
2021/05/21 01:35:54;;;;;;;32.90;8.38;;;11.40;99.90;;;;;;4889221;29;20062;-89
2021/05/21 01:38:22;;;;;;;31.10;6.80;;;11.30;99.90;;;;;;4890751;29;20071;-88
2021/05/21 01:40:54;;;;;;;31.98;7.55;;;11.30;99.90;;;;;;4922827;29;20052;-90
2021/05/21 01:43:24;;;;;;;24.30;7.68;;;11.30;99.90;;;;;;4905725;29;20052;-90
2021/05/21 01:45:52;;;;;;;30.30;7.53;;;11.30;99.90;;;;;;4905953;29;20056;-89
2021/05/21 01:48:22;;;;;;;27.40;7.97;;;11.40;99.90;;;;;;4883780;29;20048;-89
2021/05/21 01:50:52;;;;;;;32.80;9.95;;;11.40;99.90;;;;;;4914244;29;20048;-90
2021/05/21 01:53:20;;;;;;;29.92;7.28;;;11.40;99.90;;;;;;4895990;29;20064;-89
2021/05/21 01:55:51;;;;;;;18.95;5.30;;;11.40;99.90;;;;;;4897902;29;20056;-89
2021/05/21 01:58:19;;;;;;;19.98;7.15;;;11.40;99.90;;;;;;4920181;29;20052;-89
2021/05/21 02:00:47;;;;;;;38.97;8.88;;;11.40;99.90;;;;;;4900864;29;20052;-89
2021/05/21 02:03:15;;;;;;;24.17;8.15;;;11.50;99.90;;;;;;4906079;29;20070;-88
2021/05/21 02:05:43;;;;;;;16.65;5.45;;;11.50;99.90;;;;;;4875553;29;20052;-89
2021/05/21 02:08:11;;;;;;;17.15;5.45;;;11.50;99.90;;;;;;4907572;29;20048;-89
2021/05/21 02:10:39;;;;;;;29.33;7.70;;;11.50;99.90;;;;;;4862652;29;20060;-90
2021/05/21 02:13:07;;;;;;;15.18;5.95;;;11.60;99.90;;;;;;4891944;29;20052;-88
2021/05/21 02:15:37;;;;;;;30.17;7.85;;;11.40;99.90;;;;;;4923517;29;20040;-89
2021/05/21 02:18:07;;;;;;;;;;;11.60;99.90;;;;;;4907405;29;20052;-88
2021/05/21 02:20:35;;;;;;;20.85;5.43;;;11.60;99.90;;;;;;4892496;29;19923;-90
2021/05/21 02:23:04;;;;;;;24.20;5.35;;;11.60;99.90;;;;;;4889225;29;20485;-89
2021/05/21 02:25:35;;;;;;;31.17;7.22;;;11.90;99.90;;;;;;4900378;29;20052;-88
2021/05/21 02:28:03;;;;;;;24.63;6.88;;;11.60;99.90;;;;;;4868094;29;20060;-87
2021/05/21 02:30:32;;;;;;;30.75;8.27;;;11.50;99.90;;;;;;4890658;29;20048;-88
2021/05/21 02:32:59;;;;;;;25.25;7.25;;;11.50;99.90;;;;;;4875362;29;20071;-89
2021/05/21 02:35:28;;;;;;;30.30;6.95;;;11.50;99.90;;;;;;4905470;29;20516;-89
2021/05/21 02:37:56;;;;;;;39.85;6.68;;;11.50;99.90;;;;;;4887741;29;20052;-88
2021/05/21 02:40:26;;;;;;;20.60;6.35;;;11.50;99.90;;;;;;4905509;29;20059;-88
2021/05/21 02:42:57;;;;;;;34.00;8.55;;;11.50;99.90;;;;;;4909649;29;20071;-88
2021/05/21 02:45:27;;;;;;;29.02;7.85;;;11.50;99.90;;;;;;4889556;29;20086;-88
2021/05/21 02:47:55;;;;;;;23.60;4.55;;;11.40;99.90;;;;;;4911948;29;20052;-88
2021/05/21 02:50:25;;;;;;;27.45;6.68;;;11.50;99.90;;;;;;4875824;29;20056;-87
2021/05/21 02:52:54;;;;;;;27.02;7.85;;;11.50;99.90;;;;;;4906743;29;20044;-89
2021/05/21 02:55:23;;;;;;;29.48;6.80;;;11.60;99.90;;;;;;4907375;29;20052;-87
2021/05/21 02:57:52;;;;;;;45.05;11.50;;;11.60;99.90;;;;;;4907355;29;20060;-90
2021/05/21 03:00:20;;;;;;;36.60;7.38;;;11.60;99.90;;;;;;4922323;29;20080;-89
2021/05/21 03:02:49;;;;;;;33.03;8.00;;;11.50;99.90;;;;;;4903009;29;20518;-88
2021/05/21 03:05:22;;;;;;;21.40;5.20;;;11.60;99.90;;;;;;4888550;29;20056;-88
2021/05/21 03:07:54;;;;;;;39.15;8.68;;;11.60;99.90;;;;;;4919794;29;20043;-88
2021/05/21 03:10:24;;;;;;;37.83;9.93;;;11.60;99.90;;;;;;4906887;29;20044;-88
2021/05/21 03:12:57;;;;;;;22.50;7.63;;;11.60;99.90;;;;;;4919152;29;20056;-88
2021/05/21 03:15:29;;;;;;;19.40;6.25;;;11.50;99.90;;;;;;4898963;29;20048;-88
2021/05/21 03:17:59;;;;;;;41.47;10.38;;;11.80;99.90;;;;;;4876425;29;20056;-88
2021/05/21 03:20:28;;;;;;;15.75;5.40;;;11.60;99.90;;;;;;4922777;29;20064;-89
2021/05/21 03:22:56;;;;;;;31.67;8.30;;;11.40;99.90;;;;;;4891024;29;20056;-89
2021/05/21 03:25:24;;;;;;;30.40;8.73;;;11.40;99.90;;;;;;4906120;29;20059;-89
2021/05/21 03:27:52;;;;;;;18.05;6.65;;;11.30;99.90;;;;;;4883319;29;20052;-88
2021/05/21 03:30:22;;;;;;;24.95;7.78;;;11.20;99.90;;;;;;4890064;29;20055;-88
2021/05/21 03:32:51;;;;;;;28.70;6.88;;;11.20;99.90;;;;;;4882787;29;20056;-89
2021/05/21 03:35:20;;;;;;;17.98;5.30;;;11.30;99.90;;;;;;4890602;29;20068;-88
2021/05/21 03:37:55;;;;;;;28.70;7.90;;;11.30;99.90;;;;;;4920987;29;20055;-88
2021/05/21 03:40:23;;;;;;;28.33;6.95;;;11.30;99.90;;;;;;4908171;29;20044;-89
2021/05/21 03:42:51;;;;;;;21.48;7.53;;;11.20;99.90;;;;;;4891820;29;20467;-88
2021/05/21 03:45:23;;;;;;;29.80;8.82;;;11.20;99.90;;;;;;4920681;29;20055;-89
2021/05/21 03:47:52;;;;;;;27.02;5.20;;;11.10;99.90;;;;;;4922461;29;20666;-88
2021/05/21 03:50:21;;;;;;;28.42;7.97;;;11.10;99.90;;;;;;4906307;29;20064;-86
2021/05/21 03:52:50;;;;;;;34.85;8.48;;;11.10;99.90;;;;;;4906682;29;20067;-89
2021/05/21 03:55:22;;;;;;;23.38;6.68;;;11.10;99.90;;;;;;4892389;29;20048;-88
2021/05/21 03:57:51;;;;;;;33.10;10.45;;;11.00;99.90;;;;;;4911064;29;20044;-86
2021/05/21 04:00:20;;;;;;;28.38;7.10;;;11.20;99.90;;;;;;4927688;29;20056;-88
2021/05/21 04:02:50;;;;;;;24.65;9.57;;;11.00;99.90;;;;;;4881027;29;20067;-88
2021/05/21 04:05:21;;;;;;;34.45;8.00;;;11.00;99.90;;;;;;4903911;29;20048;-87
2021/05/21 04:07:51;;;;;;;35.20;7.20;;;11.00;99.90;;;;;;4907877;29;20056;-91
2021/05/21 04:10:22;;;;;;;14.45;5.40;;;10.90;99.90;;;;;;4890342;29;20052;-90
2021/05/21 04:12:50;;;;;;;22.10;6.97;;;10.90;99.90;;;;;;4894361;29;20054;-88
2021/05/21 04:15:20;;;;;;;22.73;7.68;;;10.90;99.90;;;;;;4896089;29;20044;-88
2021/05/21 04:17:49;;;;;;;26.95;8.90;;;10.80;99.90;;;;;;4887905;29;20054;-89
2021/05/21 04:20:19;;;;;;;43.88;12.38;;;10.80;99.90;;;;;;4885630;29;20051;-90
2021/05/21 04:22:47;;;;;;;27.42;9.35;;;10.80;99.90;;;;;;4916976;29;20058;-89
2021/05/21 04:25:15;;;;;;;23.98;8.18;;;10.80;99.90;;;;;;4916631;29;20060;-89
2021/05/21 04:27:43;;;;;;;20.33;7.10;;;10.80;99.90;;;;;;4887824;29;20056;-88
2021/05/21 04:30:11;;;;;;;28.23;9.43;;;11.10;99.90;;;;;;4881051;29;20044;-88
2021/05/21 04:32:40;;;;;;;36.83;6.65;;;10.80;99.90;;;;;;4911778;29;20052;-88
2021/05/21 04:35:09;;;;;;;22.02;6.47;;;10.80;99.90;;;;;;4913469;29;20059;-88
2021/05/21 04:37:39;;;;;;;41.00;8.97;;;9.80;99.90;;;;;;4910441;29;20062;-88
2021/05/21 04:40:09;;;;;;;27.90;7.63;;;10.80;99.90;;;;;;4909330;29;20055;-89
2021/05/21 04:42:44;;;;;;;18.48;5.68;;;10.70;99.90;;;;;;4890404;29;20067;-88
2021/05/21 04:45:18;;;;;;;28.20;6.13;;;10.80;99.90;;;;;;4909279;29;20063;-89
2021/05/21 04:47:46;;;;;;;34.42;7.22;;;10.80;99.90;;;;;;4908609;29;20051;-89
2021/05/21 04:50:16;;;;;;;24.35;5.72;;;10.90;99.90;;;;;;4901941;29;20063;-90
2021/05/21 04:52:46;;;;;;;26.10;6.88;;;10.90;99.90;;;;;;4908951;29;20059;-88
2021/05/21 04:55:15;;;;;;;27.83;6.82;;;10.90;99.90;;;;;;4899474;29;20056;-89
2021/05/21 04:57:49;;;;;;;23.95;6.22;;;11.00;99.90;;;;;;4908125;29;20055;-87
2021/05/21 05:00:18;;;;;;;14.40;4.32;;;11.00;99.90;;;;;;4893620;29;20052;-88
2021/05/21 05:02:47;;;;;;;25.20;6.13;;;11.10;99.90;;;;;;4907296;29;20063;-88
2021/05/21 05:05:16;;;;;;;29.13;8.20;;;11.10;99.90;;;;;;4907408;29;20071;-88
2021/05/21 05:07:46;;;;;;;12.45;3.65;;;11.20;99.90;;;;;;4908623;29;20048;-89
2021/05/21 05:10:17;;;;;;;22.67;5.30;;;11.20;99.90;;;;;;4909276;29;20056;-88
2021/05/21 05:12:45;;;;;;;28.95;5.28;;;11.20;99.90;;;;;;4905927;29;20053;-89
2021/05/21 05:15:14;;;;;;;38.83;6.43;;;11.10;99.90;;;;;;4909551;29;20052;-88
2021/05/21 05:17:41;;;;;;;27.35;7.43;;;11.20;99.90;;;;;;4902527;29;20048;-89
2021/05/21 05:20:11;;;;;;;25.25;5.65;;;11.20;99.90;;;;;;4909958;29;20483;-87
2021/05/21 05:22:39;;;;;;;24.73;5.38;;;11.20;99.90;;;;;;4861467;29;20066;-89
2021/05/21 05:25:10;;;;;;;29.77;7.05;;;11.40;99.90;;;;;;4894059;29;20075;-89
2021/05/21 05:27:39;;;;;;;24.48;5.80;;;11.30;99.90;;;;;;4902882;29;20044;-88
2021/05/21 05:30:10;;;;;;;;;;;11.30;99.90;;;;;;4571747;29;10000573;-88
2021/05/21 05:32:38;;;;;;;35.75;9.23;;;11.40;99.90;;;;;;4880932;29;20367;-89
2021/05/21 05:35:07;;;;;;;24.83;4.57;;;11.50;99.90;;;;;;4897343;29;20129;-87
2021/05/21 05:37:35;;;;;;;24.17;4.72;;;11.50;99.90;;;;;;4862945;29;20056;-87
2021/05/21 05:40:05;;;;;;;27.35;6.75;;;11.60;99.90;;;;;;4880890;29;20048;-87
2021/05/21 05:42:33;;;;;;;18.85;6.72;;;11.70;99.90;;;;;;4898066;29;20492;-88
2021/05/21 05:45:02;;;;;;;23.67;6.68;;;11.70;99.90;;;;;;4885047;29;20048;-88
2021/05/21 05:47:32;;;;;;;33.80;8.85;;;11.80;99.90;;;;;;4866432;29;20063;-87
2021/05/21 05:50:00;;;;;;;19.10;4.80;;;11.80;99.90;;;;;;4912926;29;20056;-88
2021/05/21 05:52:29;;;;;;;15.55;4.63;;;11.70;99.90;;;;;;4912920;29;20059;-88
2021/05/21 05:54:57;;;;;;;25.25;5.72;;;11.80;99.90;;;;;;4912539;29;20408;-88
2021/05/21 05:57:27;;;;;;;26.67;6.25;;;11.80;99.90;;;;;;4905653;29;20056;-86
2021/05/21 05:59:55;;;;;;;25.00;7.35;;;11.80;99.90;;;;;;4916838;29;20063;-88
2021/05/21 06:02:24;;;;;;;23.80;6.32;;;11.90;99.90;;;;;;4889249;29;20048;-88
2021/05/21 06:04:53;;;;;;;23.98;5.28;;;12.20;99.90;;;;;;4894694;29;21767;-89
2021/05/21 06:07:21;;;;;;;17.00;5.07;;;12.00;99.90;;;;;;4883955;29;20071;-87
2021/05/21 06:09:49;;;;;;;24.27;5.97;;;12.10;99.90;;;;;;4897315;29;20074;-88
2021/05/21 06:12:17;;;;;;;21.40;6.03;;;12.40;99.90;;;;;;4866696;29;20056;-88
2021/05/21 06:14:46;;;;;;;28.48;7.28;;;12.10;99.90;;;;;;4865338;29;20055;-88
2021/05/21 06:17:17;;;;;;;20.48;7.00;;;12.10;99.90;;;;;;4882133;29;20060;-89
2021/05/21 06:19:47;;;;;;;31.77;6.93;;;12.30;99.90;;;;;;4909914;29;20063;-89
2021/05/21 06:22:15;;;;;;;24.63;4.63;;;12.20;99.90;;;;;;4896030;29;20303;-88
2021/05/21 06:24:45;;;;;;;21.25;5.32;;;12.20;99.90;;;;;;4909953;29;20063;-88
2021/05/21 06:27:18;;;;;;;17.17;5.18;;;12.30;99.90;;;;;;4911756;29;20047;-89
2021/05/21 06:29:47;;;;;;;22.30;6.88;;;12.20;99.90;;;;;;4871564;29;20059;-88
2021/05/21 06:32:18;;;;;;;17.40;5.97;;;12.40;99.90;;;;;;4878388;29;20060;-87
2021/05/21 06:34:46;;;;;;;18.83;6.85;;;12.10;99.90;;;;;;4877610;29;20052;-86
2021/05/21 06:37:23;;;;;;;23.92;6.07;;;12.10;99.90;;;;;;4895018;29;20539;-87
2021/05/21 06:40:09;;;;;;;21.55;6.47;;;12.10;99.90;;;;;;4909771;29;20064;-87
2021/05/21 06:42:37;;;;;;;16.83;6.05;;;12.00;99.90;;;;;;4895952;29;20048;-90
2021/05/21 06:45:06;;;;;;;18.95;6.63;;;12.90;99.90;;;;;;4894694;29;20052;-87
2021/05/21 06:47:35;;;;;;;28.70;6.00;;;12.10;99.90;;;;;;4895250;29;20051;-87
2021/05/21 06:50:04;;;;;;;21.30;7.25;;;12.10;99.90;;;;;;4911072;29;20056;-86
2021/05/21 06:52:32;;;;;;;20.30;5.63;;;12.30;99.90;;;;;;4910992;29;20158;-86
2021/05/21 06:55:00;;;;;;;25.67;6.38;;;12.40;99.90;;;;;;4911621;29;20067;-85
2021/05/21 06:57:28;;;;;;;21.00;5.35;;;12.50;99.90;;;;;;4894110;29;20082;-85
2021/05/21 06:59:57;;;;;;;24.30;5.88;;;12.60;99.90;;;;;;4911916;29;20040;-86
2021/05/21 07:02:29;;;;;;;31.02;6.13;;;12.60;99.90;;;;;;4909533;29;20440;-85
2021/05/21 07:04:58;;;;;;;28.83;4.60;;;12.70;99.90;;;;;;4893370;29;20048;-91
2021/05/21 07:07:31;;;;;;;21.80;6.32;;;12.80;99.90;;;;;;4896258;29;20072;-86
2021/05/21 07:10:00;;;;;;;31.58;5.63;;;12.90;99.90;;;;;;4899789;29;20048;-86
2021/05/21 07:12:28;;;;;;;25.20;6.07;;;12.90;99.90;;;;;;4907032;29;20523;-86
2021/05/21 07:14:57;;;;;;;19.25;4.43;;;12.90;99.90;;;;;;4892393;29;20074;-85
2021/05/21 07:17:25;;;;;;;18.17;5.40;;;12.80;99.90;;;;;;4908579;29;20075;-85
2021/05/21 07:19:53;;;;;;;21.92;6.78;;;12.70;99.90;;;;;;4908241;29;20059;-86
2021/05/21 07:22:21;;;;;;;20.48;4.28;;;12.70;99.90;;;;;;4908552;29;20048;-85
2021/05/21 07:24:53;;;;;;;22.90;5.22;;;12.70;99.90;;;;;;4906877;29;20500;-88
2021/05/21 07:27:21;;;;;;;20.05;4.60;;;12.80;99.90;;;;;;4910446;29;20059;-88
2021/05/21 07:29:48;;;;;;;13.82;3.42;;;13.00;99.90;;;;;;4911180;29;20063;-85
2021/05/21 07:32:16;;;;;;;21.77;6.15;;;13.10;99.90;;;;;;4890139;29;20458;-87
2021/05/21 07:34:46;;;;;;;23.73;3.63;;;13.20;99.90;;;;;;4897685;29;20048;-86
2021/05/21 07:37:17;;;;;;;18.92;4.80;;;13.20;99.90;;;;;;4912532;29;20200;-86
2021/05/21 07:39:45;;;;;;;13.85;4.22;;;13.10;99.90;;;;;;4911854;29;20060;-86
2021/05/21 07:42:12;;;;;;;15.00;4.55;;;13.10;99.90;;;;;;4913100;29;20066;-85
2021/05/21 07:44:40;;;;;;;12.55;3.45;;;13.20;99.90;;;;;;4914046;29;20060;-85
2021/05/21 07:47:08;;;;;;;18.40;6.13;;;13.30;99.90;;;;;;4897752;29;20055;-85
2021/05/21 07:49:36;;;;;;;21.63;5.97;;;13.30;99.90;;;;;;4912359;29;20064;-85
2021/05/21 07:52:04;;;;;;;23.10;6.65;;;13.40;99.90;;;;;;4896434;29;20497;-85
2021/05/21 07:54:31;;;;;;;22.25;6.03;;;13.50;99.90;;;;;;4881512;29;20428;-87
2021/05/21 07:56:59;;;;;;;22.38;5.45;;;13.60;99.90;;;;;;4897737;29;20067;-85
2021/05/21 07:59:27;;;;;;;25.48;5.97;;;13.60;99.90;;;;;;4914042;29;20048;-85
2021/05/21 08:01:55;;;;;;;18.88;5.18;;;13.50;99.90;;;;;;4915040;29;20067;-86
2021/05/21 08:04:23;;;;;;;13.48;4.35;;;13.50;99.90;;;;;;4912338;29;20060;-86
2021/05/21 08:06:51;;;;;;;18.10;6.53;;;13.60;99.90;;;;;;4890392;29;20328;-85
2021/05/21 08:09:19;;;;;;;22.10;6.13;;;13.50;99.90;;;;;;4900794;29;20056;-87
2021/05/21 08:11:46;;;;;;;20.33;5.90;;;13.60;99.90;;;;;;4913893;29;20044;-86
2021/05/21 08:14:14;;;;;;;26.95;7.10;;;13.50;99.90;;;;;;4898787;29;20067;-86
2021/05/21 08:16:42;;;;;;;29.00;8.25;;;13.50;99.90;;;;;;4912666;29;20055;-87
2021/05/21 08:19:10;;;;;;;26.73;6.95;;;13.50;99.90;;;;;;4881505;29;20087;-87
2021/05/21 08:21:38;;;;;;;21.70;4.00;;;13.50;99.90;;;;;;4895494;29;20059;-85
2021/05/21 08:24:06;;;;;;;18.55;5.68;;;13.70;99.90;;;;;;4896424;29;20263;-86
2021/05/21 08:26:34;;;;;;;17.50;6.35;;;13.80;99.90;;;;;;4892748;29;20067;-86
2021/05/21 08:29:02;;;;;;;21.13;6.82;;;14.00;99.90;;;;;;4912401;29;20074;-88
2021/05/21 08:31:30;;;;;;;11.63;3.40;;;14.20;99.90;;;;;;4915581;29;20060;-87
2021/05/21 08:33:58;;;;;;;23.58;5.95;;;14.20;99.90;;;;;;4900388;29;20200;-87
2021/05/21 08:36:26;;;;;;;24.65;4.30;;;14.10;99.90;;;;;;4916693;29;20052;-85
2021/05/21 08:38:55;;;;;;;22.92;5.25;;;14.10;99.90;;;;;;4917976;29;20048;-85
2021/05/21 08:41:27;;;;;;;25.30;4.55;;;14.00;99.90;;;;;;4902715;29;20052;-84
2021/05/21 08:43:55;;;;;;;;;;;14.10;99.90;;;;;;4920747;29;20408;-85
2021/05/21 08:46:26;;;;;;;28.63;6.68;;;14.10;99.90;;;;;;4883976;29;19923;-86
2021/05/21 08:49:00;;;;;;;16.65;4.05;;;14.10;99.90;;;;;;4914209;29;20068;-86
2021/05/21 08:51:29;;;;;;;17.52;4.75;;;14.20;99.90;;;;;;4884505;29;20047;-88
2021/05/21 08:53:58;;;;;;;20.58;5.50;;;14.30;99.90;;;;;;4901265;29;20059;-87
2021/05/21 08:56:26;;;;;;;23.95;5.35;;;14.40;99.90;;;;;;4881312;29;20060;-86
2021/05/21 08:58:58;;;;;;;25.17;5.90;;;14.40;99.90;;;;;;4880796;29;20055;-86
2021/05/21 09:01:29;;;;;;;20.90;4.55;;;14.50;99.90;;;;;;4883107;29;20508;-87
2021/05/21 09:04:18;;;;;;;19.83;4.70;;;14.50;99.90;;;;;;4894732;29;20056;-85
2021/05/21 09:06:46;;;;;;;21.92;6.50;;;14.40;99.90;;;;;;4880336;29;20051;-85
2021/05/21 09:09:14;;;;;;;18.95;4.35;;;14.30;99.90;;;;;;4912152;29;20060;-85
2021/05/21 09:11:43;;;;;;;18.35;4.22;;;14.30;99.90;;;;;;4894763;29;20516;-85
2021/05/21 09:14:17;;;;;;;21.02;4.75;;;14.20;99.90;;;;;;4896555;29;20060;-85
2021/05/21 09:16:47;;;;;;;24.88;4.72;;;14.20;99.90;;;;;;4895158;29;20507;-86
2021/05/21 09:19:22;;;;;;;29.00;4.80;;;14.30;99.90;;;;;;4876628;29;20056;-86
2021/05/21 09:22:07;;;;;;;21.30;5.65;;;14.30;99.90;;;;;;4572281;29;10000656;-89
2021/05/21 09:24:41;;;;;;;20.35;4.47;;;14.30;99.90;;;;;;4910612;29;20048;-86
2021/05/21 09:27:11;;;;;;;23.23;4.15;;;14.30;99.90;;;;;;4895059;29;20044;-86
2021/05/21 09:29:44;;;;;;;30.17;5.45;;;14.30;99.90;;;;;;4906317;29;20064;-85
2021/05/21 09:32:25;;;;;;;26.20;5.93;;;14.30;99.90;;;;;;4911742;29;20055;-85
2021/05/21 09:35:16;;;;;;;20.65;5.40;;;14.20;99.90;;;;;;4917227;29;20063;-86
2021/05/21 09:37:52;;;;;;;32.08;5.82;;;14.30;99.90;;;;;;4912916;29;20055;-87
2021/05/21 09:40:21;;;;;;;22.17;4.78;;;14.20;99.90;;;;;;4902580;29;20055;-86
2021/05/21 09:42:53;;;;;;;22.23;5.57;;;14.20;99.90;;;;;;4917835;29;20056;-87
2021/05/21 09:45:26;;;;;;;21.40;4.88;;;14.20;99.90;;;;;;4894891;29;20071;-86
2021/05/21 09:48:00;;;;;;;26.67;6.32;;;14.10;99.90;;;;;;4893445;29;20501;-86
2021/05/21 09:50:35;;;;;;;12.10;5.28;;;14.10;99.90;;;;;;4911603;29;20432;-85
2021/05/21 09:53:11;;;;;;;28.35;6.00;;;14.10;99.90;;;;;;4898497;29;20048;-85
2021/05/21 09:55:45;;;;;;;28.27;7.80;;;14.10;99.90;;;;;;4895986;29;20055;-86
2021/05/21 09:58:30;;;;;;;23.67;4.65;;;14.10;99.90;;;;;;4911362;29;20064;-85
2021/05/21 10:01:22;;;;;;;23.55;5.70;;;14.10;99.90;;;;;;4894531;29;20396;-85
2021/05/21 10:03:55;;;;;;;34.20;7.85;;;14.10;99.90;;;;;;4912513;29;20499;-86
2021/05/21 10:06:25;;;;;;;20.65;4.65;;;14.10;99.90;;;;;;4910513;29;20204;-85
2021/05/21 10:08:58;;;;;;;27.85;7.90;;;14.10;99.90;;;;;;4912378;29;20060;-85
2021/05/21 10:11:32;;;;;;;38.00;6.50;;;14.00;99.90;;;;;;4912750;29;20071;-86
2021/05/21 10:14:02;;;;;;;24.63;5.28;;;13.90;99.90;;;;;;4913160;29;20438;-86
2021/05/21 10:16:33;;;;;;;15.80;4.20;;;14.00;99.90;;;;;;4912217;29;20055;-86
2021/05/21 10:19:03;;;;;;;24.27;5.40;;;14.00;99.90;;;;;;4896147;29;20349;-86
2021/05/21 10:21:31;;;;;;;15.20;4.80;;;14.00;99.90;;;;;;4915802;29;20068;-84
2021/05/21 10:24:02;;;;;;;25.08;5.78;;;14.00;99.90;;;;;;4914006;29;20067;-86
2021/05/21 10:26:33;;;;;;;15.43;3.58;;;13.90;99.90;;;;;;4917496;29;20056;-85
2021/05/21 10:29:06;;;;;;;21.08;4.63;;;13.90;99.90;;;;;;4905687;29;20056;-86
2021/05/21 10:31:35;;;;;;;18.92;5.38;;;13.90;99.90;;;;;;4913188;29;20378;-86
2021/05/21 10:34:20;;;;;;;22.15;4.25;;;13.90;99.90;;;;;;4911918;29;20063;-86
2021/05/21 10:37:28;;;;;;;37.13;5.95;;;13.90;99.90;;;;;;4894106;29;20056;-86
2021/05/21 10:40:24;;;;;;;18.40;5.45;;;13.90;99.90;;;;;;4907448;29;20071;-86
2021/05/21 10:43:17;;;;;;;31.02;5.50;;;13.90;99.90;;;;;;4910770;29;20059;-87
2021/05/21 10:46:00;;;;;;;22.50;4.95;;;13.90;99.90;;;;;;4895539;29;20376;-86
2021/05/21 10:48:33;;;;;;;15.33;5.33;;;13.80;99.90;;;;;;4894323;29;20052;-86
2021/05/21 10:51:11;;;;;;;23.67;5.07;;;13.80;99.90;;;;;;4909307;29;20055;-86
2021/05/21 10:53:40;;;;;;;8.88;3.28;;;13.80;99.90;;;;;;4908342;29;20659;-86
2021/05/21 10:56:09;;;;;;;18.67;4.10;;;13.80;99.90;;;;;;4894381;29;20044;-85
2021/05/21 10:58:53;;;;;;;17.02;5.20;;;13.70;99.90;;;;;;4910073;29;20056;-85
2021/05/21 11:01:25;;;;;;;21.40;4.90;;;13.80;99.90;;;;;;4907778;29;20048;-85
2021/05/21 11:04:03;;;;;;;23.33;5.00;;;13.80;99.90;;;;;;4915012;29;20095;-86
2021/05/21 11:06:41;;;;;;;14.32;3.88;;;13.90;99.90;;;;;;4899445;29;20060;-85
2021/05/21 11:09:15;;;;;;;15.70;4.20;;;14.10;99.90;;;;;;4914751;29;20059;-86
2021/05/21 11:12:10;;;;;;;20.23;8.43;;;14.00;99.90;;;;;;4916454;29;20067;-85
2021/05/21 11:14:40;;;;;;;15.15;4.15;;;14.10;99.90;;;;;;4898407;29;20048;-86
2021/05/21 11:17:24;;;;;;;18.88;4.68;;;14.10;99.90;;;;;;4904096;29;20052;-86
2021/05/21 11:20:00;;;;;;;22.48;5.13;;;14.10;99.90;;;;;;4915574;29;20048;-85
2021/05/21 11:22:38;;;;;;;18.60;5.50;;;14.20;99.90;;;;;;4570600;29;10000850;-85
2021/05/21 11:25:15;;;;;;;20.85;5.45;;;14.20;99.90;;;;;;4899542;29;20485;-85
2021/05/21 11:27:44;;;;;;;21.27;5.55;;;14.20;99.90;;;;;;4913711;29;20052;-85
2021/05/21 11:30:15;;;;;;;23.73;5.95;;;14.20;99.90;;;;;;4896509;29;20056;-85
2021/05/21 11:32:44;;;;;;;21.87;5.60;;;14.10;99.90;;;;;;4915009;29;20052;-85
2021/05/21 11:35:13;;;;;;;14.80;2.92;;;14.10;99.90;;;;;;4898045;29;20519;-84
2021/05/21 11:37:43;;;;;;;15.77;4.30;;;14.00;99.90;;;;;;4914741;29;20060;-86
2021/05/21 11:40:11;;;;;;;14.02;4.72;;;14.00;99.90;;;;;;4900091;29;20788;-86
2021/05/21 11:42:39;;;;;;;18.70;4.68;;;14.00;99.90;;;;;;4914814;29;20060;-85
2021/05/21 11:45:08;;;;;;;24.15;4.82;;;14.10;99.90;;;;;;4914064;29;20056;-86
2021/05/21 11:47:37;;;;;;;17.52;4.78;;;14.10;99.90;;;;;;4913855;29;20055;-85
2021/05/21 11:50:07;;;;;;;10.20;3.25;;;14.20;99.90;;;;;;4913800;29;20063;-85
2021/05/21 11:52:35;;;;;;;19.58;3.88;;;14.10;99.90;;;;;;4912779;29;20060;-85
2021/05/21 11:55:03;;;;;;;17.63;4.03;;;14.10;99.90;;;;;;4913442;29;20086;-86
2021/05/21 11:57:31;;;;;;;16.35;3.40;;;14.00;99.90;;;;;;4895427;29;20071;-85
2021/05/21 11:59:59;;;;;;;20.88;4.43;;;14.00;99.90;;;;;;4912860;29;20420;-86
2021/05/21 12:02:27;;;;;;;13.63;4.05;;;14.00;99.90;;;;;;4912891;29;20493;-85
2021/05/21 12:04:55;;;;;;;21.98;5.68;;;14.00;99.90;;;;;;4913167;29;20051;-85
2021/05/21 12:07:27;;;;;;;19.25;3.55;;;13.90;99.90;;;;;;4918386;29;20133;-85
2021/05/21 12:10:06;;;;;;;20.10;3.45;;;13.90;99.90;;;;;;4919375;29;20400;-85
2021/05/21 12:12:36;;;;;;;20.05;4.35;;;14.00;99.90;;;;;;4917072;29;20122;-86
2021/05/21 12:15:12;;;;;;;24.77;4.30;;;14.00;99.90;;;;;;4902780;29;20248;-87
2021/05/21 12:17:52;;;;;;;26.55;4.75;;;14.10;99.90;;;;;;4911896;29;20051;-85
2021/05/21 12:20:21;;;;;;;15.05;4.53;;;14.20;99.90;;;;;;4901893;29;20052;-85
2021/05/21 12:22:59;;;;;;;11.45;3.17;;;14.20;99.90;;;;;;4885062;29;20500;-86
2021/05/21 12:25:29;;;;;;;20.58;4.18;;;14.20;99.90;;;;;;4899834;29;20048;-87
2021/05/21 12:28:00;;;;;;;16.98;4.63;;;14.10;99.90;;;;;;4917356;29;20424;-88
2021/05/21 12:30:29;;;;;;;30.60;6.83;;;13.90;99.90;;;;;;4903237;29;20070;-88
2021/05/21 12:32:59;;;;;;;14.18;4.85;;;13.80;99.90;;;;;;4918189;29;20311;-89
2021/05/21 12:35:43;;;;;;;17.35;5.22;;;13.70;99.90;;;;;;4887177;29;20063;-89
2021/05/21 12:38:12;;;;;;;20.08;4.47;;;13.60;99.90;;;;;;4920124;29;20520;-88
2021/05/21 12:40:54;;;;;;;13.93;4.80;;;13.40;99.90;;;;;;4897986;29;20059;-88
2021/05/21 12:43:24;;;;;;;17.80;3.92;;;13.40;99.90;;;;;;4903503;29;20055;-87
2021/05/21 12:46:03;;;;;;;13.68;4.07;;;13.30;99.90;;;;;;4918025;29;20051;-88
2021/05/21 12:48:39;;;;;;;17.55;4.53;;;13.20;99.90;;;;;;4900043;29;20044;-90
2021/05/21 12:51:18;;;;;;;20.60;5.20;;;13.10;99.90;;;;;;4883937;29;20060;-88
2021/05/21 12:53:48;;;;;;;24.05;5.05;;;13.10;99.90;;;;;;4887721;29;20504;-88
2021/05/21 12:56:37;;;;;;;19.60;3.47;;;13.10;99.90;;;;;;4903454;29;20056;-89